sensor_id;sensor_type;location;lat;lon;timestamp;temperature;humidity
17619;DHT22;8928;51.678;6.074;2023-04-28T00:00:54;9.00;99.90
17619;DHT22;8928;51.678;6.074;2023-04-28T00:03:42;9.00;99.90
17619;DHT22;8928;51.678;6.074;2023-04-28T00:06:29;9.00;99.90
17619;DHT22;8928;51.678;6.074;2023-04-28T00:09:16;9.00;99.90
17619;DHT22;8928;51.678;6.074;2023-04-28T00:12:04;9.00;99.90
17619;DHT22;8928;51.678;6.074;2023-04-28T00:14:51;8.90;99.90
17619;DHT22;8928;51.678;6.074;2023-04-28T00:17:39;8.80;99.90
17619;DHT22;8928;51.678;6.074;2023-04-28T00:20:27;8.80;99.90
17619;DHT22;8928;51.678;6.074;2023-04-28T00:23:14;8.70;99.90
17619;DHT22;8928;51.678;6.074;2023-04-28T00:26:01;8.70;99.90
17619;DHT22;8928;51.678;6.074;2023-04-28T00:28:49;8.70;99.90
17619;DHT22;8928;51.678;6.074;2023-04-28T00:31:36;8.70;99.90
17619;DHT22;8928;51.678;6.074;2023-04-28T00:34:23;8.70;99.90
17619;DHT22;8928;51.678;6.074;2023-04-28T00:37:11;8.70;99.90
17619;DHT22;8928;51.678;6.074;2023-04-28T00:39:58;8.60;99.90
17619;DHT22;8928;51.678;6.074;2023-04-28T00:42:45;8.60;99.90
17619;DHT22;8928;51.678;6.074;2023-04-28T00:45:32;8.60;99.90
17619;DHT22;8928;51.678;6.074;2023-04-28T00:48:20;8.60;99.90
17619;DHT22;8928;51.678;6.074;2023-04-28T00:51:08;8.60;99.90
17619;DHT22;8928;51.678;6.074;2023-04-28T00:53:57;8.60;99.90
17619;DHT22;8928;51.678;6.074;2023-04-28T00:56:44;8.60;99.90
17619;DHT22;8928;51.678;6.074;2023-04-28T00:59:31;8.60;99.90
17619;DHT22;8928;51.678;6.074;2023-04-28T01:02:18;8.50;99.90
17619;DHT22;8928;51.678;6.074;2023-04-28T01:05:05;8.50;99.90
17619;DHT22;8928;51.678;6.074;2023-04-28T01:07:54;8.50;99.90
17619;DHT22;8928;51.678;6.074;2023-04-28T01:10:44;8.50;99.90
17619;DHT22;8928;51.678;6.074;2023-04-28T01:13:31;8.50;99.90
17619;DHT22;8928;51.678;6.074;2023-04-28T01:16:18;8.60;99.90
17619;DHT22;8928;51.678;6.074;2023-04-28T01:19:06;8.60;99.90
17619;DHT22;8928;51.678;6.074;2023-04-28T01:21:54;8.50;99.90
17619;DHT22;8928;51.678;6.074;2023-04-28T01:24:42;8.50;99.90
17619;DHT22;8928;51.678;6.074;2023-04-28T01:27:29;8.50;99.90
17619;DHT22;8928;51.678;6.074;2023-04-28T01:30:16;8.50;99.90
17619;DHT22;8928;51.678;6.074;2023-04-28T01:33:03;8.50;99.90
17619;DHT22;8928;51.678;6.074;2023-04-28T01:35:50;8.50;99.90
17619;DHT22;8928;51.678;6.074;2023-04-28T01:38:37;8.50;99.90
17619;DHT22;8928;51.678;6.074;2023-04-28T01:41:26;8.50;99.90
17619;DHT22;8928;51.678;6.074;2023-04-28T01:44:13;8.50;99.90
17619;DHT22;8928;51.678;6.074;2023-04-28T01:47:00;8.50;99.90
17619;DHT22;8928;51.678;6.074;2023-04-28T01:49:47;8.50;99.90
17619;DHT22;8928;51.678;6.074;2023-04-28T01:52:35;8.40;99.90
17619;DHT22;8928;51.678;6.074;2023-04-28T01:55:22;8.40;99.90
17619;DHT22;8928;51.678;6.074;2023-04-28T01:58:10;8.40;99.90
17619;DHT22;8928;51.678;6.074;2023-04-28T02:00:57;8.30;99.90
17619;DHT22;8928;51.678;6.074;2023-04-28T02:03:44;8.30;99.90
17619;DHT22;8928;51.678;6.074;2023-04-28T02:06:33;8.30;99.90
17619;DHT22;8928;51.678;6.074;2023-04-28T02:09:20;8.20;99.90
17619;DHT22;8928;51.678;6.074;2023-04-28T02:12:07;8.10;99.90
17619;DHT22;8928;51.678;6.074;2023-04-28T02:14:56;8.10;99.90
17619;DHT22;8928;51.678;6.074;2023-04-28T02:17:43;8.00;99.90
17619;DHT22;8928;51.678;6.074;2023-04-28T02:20:30;8.00;99.90
17619;DHT22;8928;51.678;6.074;2023-04-28T02:23:17;8.00;99.90
17619;DHT22;8928;51.678;6.074;2023-04-28T02:26:04;8.00;99.90
17619;DHT22;8928;51.678;6.074;2023-04-28T02:28:52;8.00;99.90
17619;DHT22;8928;51.678;6.074;2023-04-28T02:31:40;7.90;99.90
17619;DHT22;8928;51.678;6.074;2023-04-28T02:34:27;7.90;99.90
17619;DHT22;8928;51.678;6.074;2023-04-28T02:37:14;7.90;99.90
17619;DHT22;8928;51.678;6.074;2023-04-28T02:40:01;7.90;99.90
17619;DHT22;8928;51.678;6.074;2023-04-28T02:42:48;7.90;99.90
17619;DHT22;8928;51.678;6.074;2023-04-28T02:45:35;7.90;99.90
17619;DHT22;8928;51.678;6.074;2023-04-28T02:48:24;7.90;99.90
17619;DHT22;8928;51.678;6.074;2023-04-28T02:51:11;8.00;99.90
17619;DHT22;8928;51.678;6.074;2023-04-28T02:53:58;8.00;99.90
17619;DHT22;8928;51.678;6.074;2023-04-28T02:56:45;8.00;99.90
17619;DHT22;8928;51.678;6.074;2023-04-28T02:59:33;8.00;99.90
17619;DHT22;8928;51.678;6.074;2023-04-28T03:02:20;8.00;99.90
17619;DHT22;8928;51.678;6.074;2023-04-28T03:05:09;8.00;99.90
17619;DHT22;8928;51.678;6.074;2023-04-28T03:07:56;8.00;99.90
17619;DHT22;8928;51.678;6.074;2023-04-28T03:10:44;8.00;99.90
17619;DHT22;8928;51.678;6.074;2023-04-28T03:13:31;8.00;99.90
17619;DHT22;8928;51.678;6.074;2023-04-28T03:16:18;8.00;99.90
17619;DHT22;8928;51.678;6.074;2023-04-28T03:19:05;8.00;99.90
17619;DHT22;8928;51.678;6.074;2023-04-28T03:21:53;8.00;99.90
17619;DHT22;8928;51.678;6.074;2023-04-28T03:24:40;8.00;99.90
17619;DHT22;8928;51.678;6.074;2023-04-28T03:27:27;8.00;99.90
17619;DHT22;8928;51.678;6.074;2023-04-28T03:30:14;8.10;99.90
17619;DHT22;8928;51.678;6.074;2023-04-28T03:33:01;8.10;99.90
17619;DHT22;8928;51.678;6.074;2023-04-28T03:35:49;8.20;99.90
17619;DHT22;8928;51.678;6.074;2023-04-28T03:38:37;8.20;99.90
17619;DHT22;8928;51.678;6.074;2023-04-28T03:41:24;8.20;99.90
17619;DHT22;8928;51.678;6.074;2023-04-28T03:44:11;8.30;99.90
17619;DHT22;8928;51.678;6.074;2023-04-28T03:46:58;8.30;99.90
17619;DHT22;8928;51.678;6.074;2023-04-28T03:49:46;8.30;99.90
17619;DHT22;8928;51.678;6.074;2023-04-28T03:52:33;8.30;99.90
17619;DHT22;8928;51.678;6.074;2023-04-28T03:55:21;8.40;99.90
17619;DHT22;8928;51.678;6.074;2023-04-28T03:58:08;8.40;99.90
17619;DHT22;8928;51.678;6.074;2023-04-28T04:00:55;8.50;99.90
17619;DHT22;8928;51.678;6.074;2023-04-28T04:03:42;8.50;99.90
17619;DHT22;8928;51.678;6.074;2023-04-28T04:06:30;8.50;99.90
17619;DHT22;8928;51.678;6.074;2023-04-28T04:09:18;8.50;99.90
17619;DHT22;8928;51.678;6.074;2023-04-28T04:12:06;8.50;99.90
17619;DHT22;8928;51.678;6.074;2023-04-28T04:14:53;8.50;99.90
17619;DHT22;8928;51.678;6.074;2023-04-28T04:17:41;8.50;99.90
17619;DHT22;8928;51.678;6.074;2023-04-28T04:20:28;8.50;99.90
17619;DHT22;8928;51.678;6.074;2023-04-28T04:23:15;8.50;99.90
17619;DHT22;8928;51.678;6.074;2023-04-28T04:26:02;8.50;99.90
17619;DHT22;8928;51.678;6.074;2023-04-28T04:28:50;8.60;99.90
17619;DHT22;8928;51.678;6.074;2023-04-28T04:31:37;8.50;99.90
17619;DHT22;8928;51.678;6.074;2023-04-28T04:34:24;8.60;99.90
17619;DHT22;8928;51.678;6.074;2023-04-28T04:37:11;8.60;99.90
17619;DHT22;8928;51.678;6.074;2023-04-28T04:39:58;8.60;99.90
17619;DHT22;8928;51.678;6.074;2023-04-28T04:42:45;8.60;99.90
17619;DHT22;8928;51.678;6.074;2023-04-28T04:45:34;8.60;99.90
17619;DHT22;8928;51.678;6.074;2023-04-28T04:48:21;8.70;99.90
17619;DHT22;8928;51.678;6.074;2023-04-28T04:51:08;8.70;99.90
17619;DHT22;8928;51.678;6.074;2023-04-28T04:53:55;8.70;99.90
17619;DHT22;8928;51.678;6.074;2023-04-28T04:56:42;8.80;99.90
17619;DHT22;8928;51.678;6.074;2023-04-28T04:59:29;8.80;99.90
17619;DHT22;8928;51.678;6.074;2023-04-28T05:02:18;8.80;99.90
17619;DHT22;8928;51.678;6.074;2023-04-28T05:05:05;8.90;99.90
17619;DHT22;8928;51.678;6.074;2023-04-28T05:07:53;9.00;99.90
17619;DHT22;8928;51.678;6.074;2023-04-28T05:10:40;9.00;99.90
17619;DHT22;8928;51.678;6.074;2023-04-28T05:13:27;9.10;99.90
17619;DHT22;8928;51.678;6.074;2023-04-28T05:16:14;9.10;99.90
17619;DHT22;8928;51.678;6.074;2023-04-28T05:19:03;9.10;99.90
17619;DHT22;8928;51.678;6.074;2023-04-28T05:21:50;9.20;99.90
17619;DHT22;8928;51.678;6.074;2023-04-28T05:24:39;9.30;99.90
17619;DHT22;8928;51.678;6.074;2023-04-28T05:27:26;9.30;99.90
17619;DHT22;8928;51.678;6.074;2023-04-28T05:30:13;9.40;99.90
17619;DHT22;8928;51.678;6.074;2023-04-28T05:33:01;9.50;99.90
17619;DHT22;8928;51.678;6.074;2023-04-28T05:35:49;9.60;99.90
17619;DHT22;8928;51.678;6.074;2023-04-28T05:38:36;9.60;99.90
17619;DHT22;8928;51.678;6.074;2023-04-28T05:41:23;9.70;99.90
17619;DHT22;8928;51.678;6.074;2023-04-28T05:44:10;9.80;99.90
17619;DHT22;8928;51.678;6.074;2023-04-28T05:46:57;9.90;99.90
17619;DHT22;8928;51.678;6.074;2023-04-28T05:49:44;9.90;99.90
17619;DHT22;8928;51.678;6.074;2023-04-28T05:52:33;10.00;99.90
17619;DHT22;8928;51.678;6.074;2023-04-28T05:55:20;10.10;99.90
17619;DHT22;8928;51.678;6.074;2023-04-28T05:58:07;10.20;99.90
17619;DHT22;8928;51.678;6.074;2023-04-28T06:00:54;10.30;99.90
17619;DHT22;8928;51.678;6.074;2023-04-28T06:03:41;10.30;99.90
17619;DHT22;8928;51.678;6.074;2023-04-28T06:06:29;10.40;99.90
17619;DHT22;8928;51.678;6.074;2023-04-28T06:09:18;10.50;99.90
17619;DHT22;8928;51.678;6.074;2023-04-28T06:12:06;10.60;99.90
17619;DHT22;8928;51.678;6.074;2023-04-28T06:14:53;10.70;99.90
17619;DHT22;8928;51.678;6.074;2023-04-28T06:17:40;10.70;99.90
17619;DHT22;8928;51.678;6.074;2023-04-28T06:20:27;10.70;99.90
17619;DHT22;8928;51.678;6.074;2023-04-28T06:23:14;10.80;99.90
17619;DHT22;8928;51.678;6.074;2023-04-28T06:26:02;10.80;99.90
17619;DHT22;8928;51.678;6.074;2023-04-28T06:28:50;10.90;99.90
17619;DHT22;8928;51.678;6.074;2023-04-28T06:31:37;10.90;99.90
17619;DHT22;8928;51.678;6.074;2023-04-28T06:34:24;10.90;99.90
17619;DHT22;8928;51.678;6.074;2023-04-28T06:37:13;10.80;99.90
17619;DHT22;8928;51.678;6.074;2023-04-28T06:40:00;10.80;99.90
17619;DHT22;8928;51.678;6.074;2023-04-28T06:42:48;10.80;99.90
17619;DHT22;8928;51.678;6.074;2023-04-28T06:45:36;10.80;99.90
17619;DHT22;8928;51.678;6.074;2023-04-28T06:48:23;10.90;99.90
17619;DHT22;8928;51.678;6.074;2023-04-28T06:51:11;10.90;99.90
17619;DHT22;8928;51.678;6.074;2023-04-28T06:53:58;11.00;99.90
17619;DHT22;8928;51.678;6.074;2023-04-28T06:56:45;11.10;99.90
17619;DHT22;8928;51.678;6.074;2023-04-28T06:59:34;11.10;99.90
17619;DHT22;8928;51.678;6.074;2023-04-28T07:02:21;11.30;99.90
17619;DHT22;8928;51.678;6.074;2023-04-28T07:05:08;11.40;99.90
17619;DHT22;8928;51.678;6.074;2023-04-28T07:07:55;11.60;99.90
17619;DHT22;8928;51.678;6.074;2023-04-28T07:10:42;11.50;99.90
17619;DHT22;8928;51.678;6.074;2023-04-28T07:13:29;11.60;99.90
17619;DHT22;8928;51.678;6.074;2023-04-28T07:16:18;11.50;99.90
17619;DHT22;8928;51.678;6.074;2023-04-28T07:19:06;11.60;99.90
17619;DHT22;8928;51.678;6.074;2023-04-28T07:21:53;11.60;99.90
17619;DHT22;8928;51.678;6.074;2023-04-28T07:24:40;11.70;99.90
17619;DHT22;8928;51.678;6.074;2023-04-28T07:27:27;11.90;99.90
17619;DHT22;8928;51.678;6.074;2023-04-28T07:30:14;12.00;99.90
17619;DHT22;8928;51.678;6.074;2023-04-28T07:33:02;12.10;99.90
17619;DHT22;8928;51.678;6.074;2023-04-28T07:35:49;12.40;99.90
17619;DHT22;8928;51.678;6.074;2023-04-28T07:38:37;12.60;99.90
17619;DHT22;8928;51.678;6.074;2023-04-28T07:41:25;12.80;99.90
17619;DHT22;8928;51.678;6.074;2023-04-28T07:44:13;13.10;99.90
17619;DHT22;8928;51.678;6.074;2023-04-28T07:47:00;13.20;99.90
17619;DHT22;8928;51.678;6.074;2023-04-28T07:49:49;13.20;99.90
17619;DHT22;8928;51.678;6.074;2023-04-28T07:52:36;13.30;99.90
17619;DHT22;8928;51.678;6.074;2023-04-28T07:55:24;13.40;99.90
17619;DHT22;8928;51.678;6.074;2023-04-28T07:58:11;13.40;99.90
17619;DHT22;8928;51.678;6.074;2023-04-28T08:00:58;13.50;99.90
17619;DHT22;8928;51.678;6.074;2023-04-28T08:03:46;13.80;99.90
17619;DHT22;8928;51.678;6.074;2023-04-28T08:06:34;13.90;99.90
17619;DHT22;8928;51.678;6.074;2023-04-28T08:09:22;14.10;99.90
17619;DHT22;8928;51.678;6.074;2023-04-28T08:12:09;14.30;99.90
17619;DHT22;8928;51.678;6.074;2023-04-28T08:14:56;14.40;99.90
17619;DHT22;8928;51.678;6.074;2023-04-28T08:17:43;14.60;99.90
17619;DHT22;8928;51.678;6.074;2023-04-28T08:20:30;14.90;99.90
17619;DHT22;8928;51.678;6.074;2023-04-28T08:23:18;15.30;99.90
17619;DHT22;8928;51.678;6.074;2023-04-28T08:26:06;15.40;99.90
17619;DHT22;8928;51.678;6.074;2023-04-28T08:28:53;15.50;99.90
17619;DHT22;8928;51.678;6.074;2023-04-28T08:31:40;15.60;99.90
17619;DHT22;8928;51.678;6.074;2023-04-28T08:34:27;15.70;99.90
17619;DHT22;8928;51.678;6.074;2023-04-28T08:37:14;15.80;99.90
17619;DHT22;8928;51.678;6.074;2023-04-28T08:40:03;15.80;99.90
17619;DHT22;8928;51.678;6.074;2023-04-28T08:42:54;15.90;99.90
17619;DHT22;8928;51.678;6.074;2023-04-28T08:45:42;15.90;99.90
17619;DHT22;8928;51.678;6.074;2023-04-28T08:48:32;16.00;99.90
17619;DHT22;8928;51.678;6.074;2023-04-28T08:51:27;16.20;99.90
17619;DHT22;8928;51.678;6.074;2023-04-28T08:54:19;16.00;99.90
17619;DHT22;8928;51.678;6.074;2023-04-28T08:57:09;15.80;99.90
17619;DHT22;8928;51.678;6.074;2023-04-28T08:59:57;15.50;99.90
17619;DHT22;8928;51.678;6.074;2023-04-28T09:02:44;15.40;99.90
17619;DHT22;8928;51.678;6.074;2023-04-28T09:05:31;15.20;99.90
17619;DHT22;8928;51.678;6.074;2023-04-28T09:08:18;15.20;99.90
17619;DHT22;8928;51.678;6.074;2023-04-28T09:11:07;15.40;99.90
17619;DHT22;8928;51.678;6.074;2023-04-28T09:14:10;15.60;99.90
17619;DHT22;8928;51.678;6.074;2023-04-28T09:16:58;15.70;99.90
17619;DHT22;8928;51.678;6.074;2023-04-28T09:19:45;15.80;99.90
17619;DHT22;8928;51.678;6.074;2023-04-28T09:22:32;15.90;99.90
17619;DHT22;8928;51.678;6.074;2023-04-28T09:25:21;16.00;99.90
17619;DHT22;8928;51.678;6.074;2023-04-28T09:28:19;16.00;99.90
17619;DHT22;8928;51.678;6.074;2023-04-28T09:31:21;16.00;99.90
17619;DHT22;8928;51.678;6.074;2023-04-28T09:34:08;15.90;99.90
17619;DHT22;8928;51.678;6.074;2023-04-28T09:36:56;15.80;99.90
17619;DHT22;8928;51.678;6.074;2023-04-28T09:39:44;15.80;99.90
17619;DHT22;8928;51.678;6.074;2023-04-28T09:42:33;15.90;99.90
17619;DHT22;8928;51.678;6.074;2023-04-28T09:45:20;16.00;99.90
17619;DHT22;8928;51.678;6.074;2023-04-28T09:48:10;16.10;99.90
17619;DHT22;8928;51.678;6.074;2023-04-28T09:50:58;16.20;99.90
17619;DHT22;8928;51.678;6.074;2023-04-28T09:53:45;16.10;99.90
17619;DHT22;8928;51.678;6.074;2023-04-28T09:56:34;16.00;99.90
17619;DHT22;8928;51.678;6.074;2023-04-28T09:59:23;16.00;99.90
17619;DHT22;8928;51.678;6.074;2023-04-28T10:02:12;16.00;99.90
17619;DHT22;8928;51.678;6.074;2023-04-28T10:05:01;16.00;99.90
17619;DHT22;8928;51.678;6.074;2023-04-28T10:07:50;15.90;99.90
17619;DHT22;8928;51.678;6.074;2023-04-28T10:10:39;15.80;99.90
17619;DHT22;8928;51.678;6.074;2023-04-28T10:13:27;16.00;99.90
17619;DHT22;8928;51.678;6.074;2023-04-28T10:16:14;16.10;99.90
17619;DHT22;8928;51.678;6.074;2023-04-28T10:19:02;16.00;99.90
17619;DHT22;8928;51.678;6.074;2023-04-28T10:22:04;15.90;99.90
17619;DHT22;8928;51.678;6.074;2023-04-28T10:25:09;15.80;99.90
17619;DHT22;8928;51.678;6.074;2023-04-28T10:27:59;15.70;99.90
17619;DHT22;8928;51.678;6.074;2023-04-28T10:31:08;15.60;99.90
17619;DHT22;8928;51.678;6.074;2023-04-28T10:33:55;15.40;99.90
17619;DHT22;8928;51.678;6.074;2023-04-28T10:37:04;15.30;99.90
17619;DHT22;8928;51.678;6.074;2023-04-28T10:43:37;15.10;99.90
17619;DHT22;8928;51.678;6.074;2023-04-28T10:46:25;15.00;99.90
17619;DHT22;8928;51.678;6.074;2023-04-28T10:49:12;15.00;99.90
17619;DHT22;8928;51.678;6.074;2023-04-28T10:51:59;15.10;99.90
17619;DHT22;8928;51.678;6.074;2023-04-28T10:55:30;15.20;99.90
17619;DHT22;8928;51.678;6.074;2023-04-28T10:58:30;15.30;99.90
17619;DHT22;8928;51.678;6.074;2023-04-28T11:01:25;15.60;99.90
17619;DHT22;8928;51.678;6.074;2023-04-28T11:04:12;15.70;99.90
17619;DHT22;8928;51.678;6.074;2023-04-28T11:07:09;15.70;99.90
17619;DHT22;8928;51.678;6.074;2023-04-28T11:09:57;15.30;99.90
17619;DHT22;8928;51.678;6.074;2023-04-28T11:16:21;15.10;99.90
17619;DHT22;8928;51.678;6.074;2023-04-28T11:19:12;15.20;99.90
17619;DHT22;8928;51.678;6.074;2023-04-28T11:22:04;15.10;99.90
17619;DHT22;8928;51.678;6.074;2023-04-28T11:24:59;15.20;99.90
17619;DHT22;8928;51.678;6.074;2023-04-28T11:27:46;15.20;99.90
17619;DHT22;8928;51.678;6.074;2023-04-28T11:30:33;15.00;99.90
17619;DHT22;8928;51.678;6.074;2023-04-28T11:33:20;14.90;99.90
17619;DHT22;8928;51.678;6.074;2023-04-28T11:36:07;14.90;99.90
17619;DHT22;8928;51.678;6.074;2023-04-28T11:39:08;14.90;99.90
17619;DHT22;8928;51.678;6.074;2023-04-28T11:41:57;14.90;99.90
17619;DHT22;8928;51.678;6.074;2023-04-28T11:44:49;14.90;99.90
17619;DHT22;8928;51.678;6.074;2023-04-28T11:47:37;15.00;99.90
17619;DHT22;8928;51.678;6.074;2023-04-28T11:50:34;15.30;99.90
17619;DHT22;8928;51.678;6.074;2023-04-28T11:53:39;15.70;99.90
17619;DHT22;8928;51.678;6.074;2023-04-28T11:56:27;16.20;99.90
17619;DHT22;8928;51.678;6.074;2023-04-28T11:59:15;16.40;99.90
17619;DHT22;8928;51.678;6.074;2023-04-28T12:02:06;16.80;99.90
17619;DHT22;8928;51.678;6.074;2023-04-28T12:04:53;17.30;99.90
17619;DHT22;8928;51.678;6.074;2023-04-28T12:07:42;17.60;99.90
17619;DHT22;8928;51.678;6.074;2023-04-28T12:10:30;17.50;99.90
17619;DHT22;8928;51.678;6.074;2023-04-28T12:13:17;17.60;99.90
17619;DHT22;8928;51.678;6.074;2023-04-28T12:16:06;17.40;99.90
17619;DHT22;8928;51.678;6.074;2023-04-28T12:18:57;17.40;99.90
17619;DHT22;8928;51.678;6.074;2023-04-28T12:21:58;17.10;99.90
17619;DHT22;8928;51.678;6.074;2023-04-28T12:24:46;17.00;99.90
17619;DHT22;8928;51.678;6.074;2023-04-28T12:27:33;16.90;99.90
17619;DHT22;8928;51.678;6.074;2023-04-28T12:30:24;16.80;99.90
17619;DHT22;8928;51.678;6.074;2023-04-28T12:33:22;16.80;99.90
17619;DHT22;8928;51.678;6.074;2023-04-28T12:36:10;16.80;99.90
17619;DHT22;8928;51.678;6.074;2023-04-28T12:38:58;16.80;99.90
17619;DHT22;8928;51.678;6.074;2023-04-28T12:41:45;16.70;99.90
17619;DHT22;8928;51.678;6.074;2023-04-28T12:44:32;16.50;99.90
17619;DHT22;8928;51.678;6.074;2023-04-28T12:47:21;16.20;99.90
17619;DHT22;8928;51.678;6.074;2023-04-28T12:50:09;15.90;99.90
17619;DHT22;8928;51.678;6.074;2023-04-28T12:52:57;15.70;99.90
17619;DHT22;8928;51.678;6.074;2023-04-28T12:55:44;15.60;99.90
17619;DHT22;8928;51.678;6.074;2023-04-28T12:58:31;15.60;99.90
17619;DHT22;8928;51.678;6.074;2023-04-28T13:01:18;15.50;99.90
17619;DHT22;8928;51.678;6.074;2023-04-28T13:04:05;15.50;99.90
17619;DHT22;8928;51.678;6.074;2023-04-28T13:06:55;15.30;99.90
17619;DHT22;8928;51.678;6.074;2023-04-28T13:09:43;15.10;99.90
17619;DHT22;8928;51.678;6.074;2023-04-28T13:12:30;14.90;99.90
17619;DHT22;8928;51.678;6.074;2023-04-28T13:15:18;14.80;99.90
17619;DHT22;8928;51.678;6.074;2023-04-28T13:18:05;14.80;99.90
17619;DHT22;8928;51.678;6.074;2023-04-28T13:20:52;14.60;99.90
17619;DHT22;8928;51.678;6.074;2023-04-28T13:23:40;14.50;99.90
17619;DHT22;8928;51.678;6.074;2023-04-28T13:26:28;14.30;99.90
17619;DHT22;8928;51.678;6.074;2023-04-28T13:29:16;14.30;99.90
17619;DHT22;8928;51.678;6.074;2023-04-28T13:32:04;14.30;99.90
17619;DHT22;8928;51.678;6.074;2023-04-28T13:34:51;14.20;99.90
17619;DHT22;8928;51.678;6.074;2023-04-28T13:37:38;14.20;99.90
17619;DHT22;8928;51.678;6.074;2023-04-28T13:40:32;14.20;99.90
17619;DHT22;8928;51.678;6.074;2023-04-28T13:43:20;14.20;99.90
17619;DHT22;8928;51.678;6.074;2023-04-28T13:46:08;14.10;99.90
17619;DHT22;8928;51.678;6.074;2023-04-28T13:48:55;14.00;99.90
17619;DHT22;8928;51.678;6.074;2023-04-28T13:51:43;13.90;99.90
17619;DHT22;8928;51.678;6.074;2023-04-28T13:54:31;13.70;99.90
17619;DHT22;8928;51.678;6.074;2023-04-28T13:57:19;13.50;99.90
17619;DHT22;8928;51.678;6.074;2023-04-28T14:00:07;13.50;99.90
17619;DHT22;8928;51.678;6.074;2023-04-28T14:02:55;13.40;99.90
17619;DHT22;8928;51.678;6.074;2023-04-28T14:05:42;13.40;99.90
17619;DHT22;8928;51.678;6.074;2023-04-28T14:08:29;13.50;99.90
17619;DHT22;8928;51.678;6.074;2023-04-28T14:11:17;13.50;99.90
17619;DHT22;8928;51.678;6.074;2023-04-28T14:14:05;13.50;99.90
17619;DHT22;8928;51.678;6.074;2023-04-28T14:16:52;13.50;99.90
17619;DHT22;8928;51.678;6.074;2023-04-28T14:19:39;13.70;99.90
17619;DHT22;8928;51.678;6.074;2023-04-28T14:22:26;13.90;99.90
17619;DHT22;8928;51.678;6.074;2023-04-28T14:25:13;14.10;99.90
17619;DHT22;8928;51.678;6.074;2023-04-28T14:28:01;14.30;99.90
17619;DHT22;8928;51.678;6.074;2023-04-28T14:30:49;14.70;99.90
17619;DHT22;8928;51.678;6.074;2023-04-28T14:33:36;15.00;99.90
17619;DHT22;8928;51.678;6.074;2023-04-28T14:36:23;15.60;99.90
17619;DHT22;8928;51.678;6.074;2023-04-28T14:39:10;15.90;99.90
17619;DHT22;8928;51.678;6.074;2023-04-28T14:41:57;15.90;99.90
17619;DHT22;8928;51.678;6.074;2023-04-28T14:44:44;15.90;99.90
17619;DHT22;8928;51.678;6.074;2023-04-28T14:47:33;16.00;99.90
17619;DHT22;8928;51.678;6.074;2023-04-28T14:50:20;15.90;99.90
17619;DHT22;8928;51.678;6.074;2023-04-28T14:53:07;15.50;99.90
17619;DHT22;8928;51.678;6.074;2023-04-28T14:55:54;15.30;99.90
17619;DHT22;8928;51.678;6.074;2023-04-28T14:58:41;15.30;99.90
17619;DHT22;8928;51.678;6.074;2023-04-28T15:01:30;15.60;99.90
17619;DHT22;8928;51.678;6.074;2023-04-28T15:04:18;15.80;99.90
17619;DHT22;8928;51.678;6.074;2023-04-28T15:07:06;15.90;99.90
17619;DHT22;8928;51.678;6.074;2023-04-28T15:09:54;15.90;99.90
17619;DHT22;8928;51.678;6.074;2023-04-28T15:12:41;15.90;99.90
17619;DHT22;8928;51.678;6.074;2023-04-28T15:15:29;15.70;99.90
17619;DHT22;8928;51.678;6.074;2023-04-28T15:18:16;15.40;99.90
17619;DHT22;8928;51.678;6.074;2023-04-28T15:21:05;15.20;99.90
17619;DHT22;8928;51.678;6.074;2023-04-28T15:23:53;15.10;99.90
17619;DHT22;8928;51.678;6.074;2023-04-28T15:26:40;14.90;99.90
17619;DHT22;8928;51.678;6.074;2023-04-28T15:29:27;14.80;99.90
17619;DHT22;8928;51.678;6.074;2023-04-28T15:32:14;14.80;99.90
17619;DHT22;8928;51.678;6.074;2023-04-28T15:35:01;14.80;99.90
17619;DHT22;8928;51.678;6.074;2023-04-28T15:37:50;14.80;99.90
17619;DHT22;8928;51.678;6.074;2023-04-28T15:40:38;15.00;99.90
17619;DHT22;8928;51.678;6.074;2023-04-28T15:43:25;14.90;99.90
17619;DHT22;8928;51.678;6.074;2023-04-28T15:46:12;14.90;99.90
17619;DHT22;8928;51.678;6.074;2023-04-28T15:49:02;15.00;99.90
17619;DHT22;8928;51.678;6.074;2023-04-28T15:51:49;15.00;99.90
17619;DHT22;8928;51.678;6.074;2023-04-28T15:54:38;14.90;99.90
17619;DHT22;8928;51.678;6.074;2023-04-28T15:57:25;14.80;99.90
17619;DHT22;8928;51.678;6.074;2023-04-28T16:00:14;14.70;99.90
17619;DHT22;8928;51.678;6.074;2023-04-28T16:03:01;14.60;99.90
17619;DHT22;8928;51.678;6.074;2023-04-28T16:05:48;14.60;99.90
17619;DHT22;8928;51.678;6.074;2023-04-28T16:08:35;14.60;99.90
17619;DHT22;8928;51.678;6.074;2023-04-28T16:11:24;14.70;99.90
17619;DHT22;8928;51.678;6.074;2023-04-28T16:14:11;14.70;99.90
17619;DHT22;8928;51.678;6.074;2023-04-28T16:16:58;14.70;99.90
17619;DHT22;8928;51.678;6.074;2023-04-28T16:19:45;14.80;99.90
17619;DHT22;8928;51.678;6.074;2023-04-28T16:22:32;14.80;99.90
17619;DHT22;8928;51.678;6.074;2023-04-28T16:25:19;15.10;99.90
17619;DHT22;8928;51.678;6.074;2023-04-28T16:28:08;15.20;99.90
17619;DHT22;8928;51.678;6.074;2023-04-28T16:30:55;15.10;99.90
17619;DHT22;8928;51.678;6.074;2023-04-28T16:33:42;15.10;99.90
17619;DHT22;8928;51.678;6.074;2023-04-28T16:36:29;14.90;99.90
17619;DHT22;8928;51.678;6.074;2023-04-28T16:39:17;14.80;99.90
17619;DHT22;8928;51.678;6.074;2023-04-28T16:42:04;14.80;99.90
17619;DHT22;8928;51.678;6.074;2023-04-28T16:44:53;14.80;99.90
17619;DHT22;8928;51.678;6.074;2023-04-28T16:47:40;14.60;99.90
17619;DHT22;8928;51.678;6.074;2023-04-28T16:50:28;14.60;99.90
17619;DHT22;8928;51.678;6.074;2023-04-28T16:53:15;14.60;99.90
17619;DHT22;8928;51.678;6.074;2023-04-28T16:56:02;14.50;99.90
17619;DHT22;8928;51.678;6.074;2023-04-28T16:58:49;14.50;99.90
17619;DHT22;8928;51.678;6.074;2023-04-28T17:01:37;14.60;99.90
17619;DHT22;8928;51.678;6.074;2023-04-28T17:04:24;14.50;99.90
17619;DHT22;8928;51.678;6.074;2023-04-28T17:07:12;14.40;99.90
17619;DHT22;8928;51.678;6.074;2023-04-28T17:09:59;14.40;99.90
17619;DHT22;8928;51.678;6.074;2023-04-28T17:12:46;14.50;99.90
17619;DHT22;8928;51.678;6.074;2023-04-28T17:15:33;14.60;99.90
17619;DHT22;8928;51.678;6.074;2023-04-28T17:18:21;14.60;99.90
17619;DHT22;8928;51.678;6.074;2023-04-28T17:21:09;14.60;99.90
17619;DHT22;8928;51.678;6.074;2023-04-28T17:23:56;14.60;99.90
17619;DHT22;8928;51.678;6.074;2023-04-28T17:26:43;14.60;99.90
17619;DHT22;8928;51.678;6.074;2023-04-28T17:29:30;14.60;99.90
17619;DHT22;8928;51.678;6.074;2023-04-28T17:32:17;14.40;99.90
17619;DHT22;8928;51.678;6.074;2023-04-28T17:35:07;14.30;99.90
17619;DHT22;8928;51.678;6.074;2023-04-28T17:37:54;14.20;99.90
17619;DHT22;8928;51.678;6.074;2023-04-28T17:40:41;14.00;99.90
17619;DHT22;8928;51.678;6.074;2023-04-28T17:43:29;13.90;99.90
17619;DHT22;8928;51.678;6.074;2023-04-28T17:46:16;13.90;99.90
17619;DHT22;8928;51.678;6.074;2023-04-28T17:49:03;13.90;99.90
17619;DHT22;8928;51.678;6.074;2023-04-28T17:51:52;13.90;99.90
17619;DHT22;8928;51.678;6.074;2023-04-28T17:54:39;13.90;99.90
17619;DHT22;8928;51.678;6.074;2023-04-28T17:57:26;13.80;99.90
17619;DHT22;8928;51.678;6.074;2023-04-28T18:00:13;13.80;99.90
17619;DHT22;8928;51.678;6.074;2023-04-28T18:03:00;13.80;99.90
17619;DHT22;8928;51.678;6.074;2023-04-28T18:05:47;13.70;99.90
17619;DHT22;8928;51.678;6.074;2023-04-28T18:08:37;13.60;99.90
17619;DHT22;8928;51.678;6.074;2023-04-28T18:11:24;13.60;99.90
17619;DHT22;8928;51.678;6.074;2023-04-28T18:14:12;13.60;99.90